sensor_id;sensor_type;location;lat;lon;timestamp;temperature;humidity
35206;DHT22;46555;45.620;13.796;2022-08-19T00:01:37;23.20;99.90
35206;DHT22;46555;45.620;13.796;2022-08-19T00:04:06;23.20;99.90
35206;DHT22;46555;45.620;13.796;2022-08-19T00:06:33;23.20;99.90
35206;DHT22;46555;45.620;13.796;2022-08-19T00:08:59;23.20;99.90
35206;DHT22;46555;45.620;13.796;2022-08-19T00:11:26;23.20;99.90
35206;DHT22;46555;45.620;13.796;2022-08-19T00:13:53;23.30;99.90
35206;DHT22;46555;45.620;13.796;2022-08-19T00:16:20;23.30;99.90
35206;DHT22;46555;45.620;13.796;2022-08-19T00:18:47;23.50;99.90
35206;DHT22;46555;45.620;13.796;2022-08-19T00:21:13;23.40;99.90
35206;DHT22;46555;45.620;13.796;2022-08-19T00:23:40;23.40;99.90
35206;DHT22;46555;45.620;13.796;2022-08-19T00:26:07;23.40;99.90
35206;DHT22;46555;45.620;13.796;2022-08-19T00:28:33;23.50;99.90
35206;DHT22;46555;45.620;13.796;2022-08-19T00:31:02;23.50;99.90
35206;DHT22;46555;45.620;13.796;2022-08-19T00:33:29;23.60;99.90
35206;DHT22;46555;45.620;13.796;2022-08-19T00:36:02;23.70;99.90
35206;DHT22;46555;45.620;13.796;2022-08-19T00:38:30;23.70;99.90
35206;DHT22;46555;45.620;13.796;2022-08-19T00:40:56;23.80;99.90
35206;DHT22;46555;45.620;13.796;2022-08-19T00:43:24;23.80;99.90
35206;DHT22;46555;45.620;13.796;2022-08-19T00:45:51;23.90;99.90
35206;DHT22;46555;45.620;13.796;2022-08-19T00:48:18;24.00;99.90
35206;DHT22;46555;45.620;13.796;2022-08-19T00:50:45;24.00;99.90
35206;DHT22;46555;45.620;13.796;2022-08-19T00:53:12;24.00;99.90
35206;DHT22;46555;45.620;13.796;2022-08-19T00:55:42;24.00;99.90
35206;DHT22;46555;45.620;13.796;2022-08-19T00:58:12;24.00;99.90
35206;DHT22;46555;45.620;13.796;2022-08-19T01:00:38;24.00;99.90
35206;DHT22;46555;45.620;13.796;2022-08-19T01:03:17;24.00;99.90
35206;DHT22;46555;45.620;13.796;2022-08-19T01:05:44;24.00;99.90
35206;DHT22;46555;45.620;13.796;2022-08-19T01:08:11;23.90;99.90
35206;DHT22;46555;45.620;13.796;2022-08-19T01:10:41;23.60;99.90
35206;DHT22;46555;45.620;13.796;2022-08-19T01:13:08;23.30;99.90
35206;DHT22;46555;45.620;13.796;2022-08-19T01:15:40;22.70;99.90
35206;DHT22;46555;45.620;13.796;2022-08-19T01:18:10;22.10;99.90
35206;DHT22;46555;45.620;13.796;2022-08-19T01:20:36;21.70;99.90
35206;DHT22;46555;45.620;13.796;2022-08-19T01:23:02;21.60;99.90
35206;DHT22;46555;45.620;13.796;2022-08-19T01:25:35;21.30;99.90
35206;DHT22;46555;45.620;13.796;2022-08-19T01:28:03;20.90;99.90
35206;DHT22;46555;45.620;13.796;2022-08-19T01:30:34;20.80;99.90
35206;DHT22;46555;45.620;13.796;2022-08-19T01:33:01;20.70;99.90
35206;DHT22;46555;45.620;13.796;2022-08-19T01:35:29;20.70;99.90
35206;DHT22;46555;45.620;13.796;2022-08-19T01:38:02;20.70;99.90
35206;DHT22;46555;45.620;13.796;2022-08-19T01:40:33;20.40;99.90
35206;DHT22;46555;45.620;13.796;2022-08-19T01:42:59;20.40;99.90
35206;DHT22;46555;45.620;13.796;2022-08-19T01:45:26;20.60;99.90
35206;DHT22;46555;45.620;13.796;2022-08-19T01:47:53;20.80;99.90
35206;DHT22;46555;45.620;13.796;2022-08-19T01:50:19;20.80;99.90
35206;DHT22;46555;45.620;13.796;2022-08-19T01:52:45;20.90;99.90
35206;DHT22;46555;45.620;13.796;2022-08-19T01:55:16;20.90;99.90
35206;DHT22;46555;45.620;13.796;2022-08-19T01:57:45;21.00;99.90
35206;DHT22;46555;45.620;13.796;2022-08-19T02:00:13;21.10;99.90
35206;DHT22;46555;45.620;13.796;2022-08-19T02:02:41;21.20;99.90
35206;DHT22;46555;45.620;13.796;2022-08-19T02:05:07;21.30;99.90
35206;DHT22;46555;45.620;13.796;2022-08-19T02:07:34;21.10;99.90
35206;DHT22;46555;45.620;13.796;2022-08-19T02:10:06;20.90;99.90
35206;DHT22;46555;45.620;13.796;2022-08-19T02:12:32;20.70;99.90
35206;DHT22;46555;45.620;13.796;2022-08-19T02:14:59;20.70;99.90
35206;DHT22;46555;45.620;13.796;2022-08-19T02:17:26;20.60;99.90
35206;DHT22;46555;45.620;13.796;2022-08-19T02:19:54;20.70;99.90
35206;DHT22;46555;45.620;13.796;2022-08-19T02:22:19;20.80;99.90
35206;DHT22;46555;45.620;13.796;2022-08-19T02:24:46;20.90;99.90
35206;DHT22;46555;45.620;13.796;2022-08-19T02:27:13;20.90;99.90
35206;DHT22;46555;45.620;13.796;2022-08-19T02:29:39;20.90;99.90
35206;DHT22;46555;45.620;13.796;2022-08-19T02:32:06;20.70;99.90
35206;DHT22;46555;45.620;13.796;2022-08-19T02:34:32;20.60;99.90
35206;DHT22;46555;45.620;13.796;2022-08-19T02:36:58;20.60;99.90
35206;DHT22;46555;45.620;13.796;2022-08-19T02:39:24;20.50;99.90
35206;DHT22;46555;45.620;13.796;2022-08-19T02:41:49;20.40;99.90
35206;DHT22;46555;45.620;13.796;2022-08-19T02:44:17;20.40;99.90
35206;DHT22;46555;45.620;13.796;2022-08-19T02:46:45;20.40;99.90
35206;DHT22;46555;45.620;13.796;2022-08-19T02:49:11;20.30;99.90
35206;DHT22;46555;45.620;13.796;2022-08-19T02:51:40;20.30;99.90
35206;DHT22;46555;45.620;13.796;2022-08-19T02:54:07;20.30;99.90
35206;DHT22;46555;45.620;13.796;2022-08-19T02:56:38;20.30;99.90
35206;DHT22;46555;45.620;13.796;2022-08-19T02:59:05;20.00;99.90
35206;DHT22;46555;45.620;13.796;2022-08-19T03:01:36;19.70;99.90
35206;DHT22;46555;45.620;13.796;2022-08-19T03:04:04;19.80;99.90
35206;DHT22;46555;45.620;13.796;2022-08-19T03:06:30;20.00;99.90
35206;DHT22;46555;45.620;13.796;2022-08-19T03:08:57;20.00;99.90
35206;DHT22;46555;45.620;13.796;2022-08-19T03:11:26;20.00;99.90
35206;DHT22;46555;45.620;13.796;2022-08-19T03:13:53;20.10;99.90
35206;DHT22;46555;45.620;13.796;2022-08-19T03:16:21;20.00;99.90
35206;DHT22;46555;45.620;13.796;2022-08-19T03:18:47;19.90;99.90
35206;DHT22;46555;45.620;13.796;2022-08-19T03:21:18;19.90;99.90
35206;DHT22;46555;45.620;13.796;2022-08-19T03:23:45;19.80;99.90
35206;DHT22;46555;45.620;13.796;2022-08-19T03:26:10;19.80;99.90
35206;DHT22;46555;45.620;13.796;2022-08-19T03:28:36;19.80;99.90
35206;DHT22;46555;45.620;13.796;2022-08-19T03:31:06;19.80;99.90
35206;DHT22;46555;45.620;13.796;2022-08-19T03:33:33;19.70;99.90
35206;DHT22;46555;45.620;13.796;2022-08-19T03:36:12;19.80;99.90
35206;DHT22;46555;45.620;13.796;2022-08-19T03:38:43;19.80;99.90
35206;DHT22;46555;45.620;13.796;2022-08-19T03:41:12;19.80;99.90
35206;DHT22;46555;45.620;13.796;2022-08-19T03:43:40;19.80;99.90
35206;DHT22;46555;45.620;13.796;2022-08-19T03:46:11;19.80;99.90
35206;DHT22;46555;45.620;13.796;2022-08-19T03:48:39;19.80;99.90
35206;DHT22;46555;45.620;13.796;2022-08-19T03:51:07;19.70;99.90
35206;DHT22;46555;45.620;13.796;2022-08-19T03:53:34;19.70;99.90
35206;DHT22;46555;45.620;13.796;2022-08-19T03:56:00;19.70;99.90
35206;DHT22;46555;45.620;13.796;2022-08-19T03:58:28;19.70;99.90
35206;DHT22;46555;45.620;13.796;2022-08-19T04:00:55;19.70;99.90
35206;DHT22;46555;45.620;13.796;2022-08-19T04:03:22;19.80;99.90
35206;DHT22;46555;45.620;13.796;2022-08-19T04:05:48;19.80;99.90
35206;DHT22;46555;45.620;13.796;2022-08-19T04:08:14;19.70;99.90
35206;DHT22;46555;45.620;13.796;2022-08-19T04:10:43;19.60;99.90
35206;DHT22;46555;45.620;13.796;2022-08-19T04:13:09;19.60;99.90
35206;DHT22;46555;45.620;13.796;2022-08-19T04:15:40;19.60;99.90
35206;DHT22;46555;45.620;13.796;2022-08-19T04:18:08;19.60;99.90
35206;DHT22;46555;45.620;13.796;2022-08-19T04:20:46;19.80;99.90
35206;DHT22;46555;45.620;13.796;2022-08-19T04:23:14;19.90;99.90
35206;DHT22;46555;45.620;13.796;2022-08-19T04:25:43;20.00;99.90
35206;DHT22;46555;45.620;13.796;2022-08-19T04:28:12;20.10;99.90
35206;DHT22;46555;45.620;13.796;2022-08-19T04:30:40;20.00;99.90
35206;DHT22;46555;45.620;13.796;2022-08-19T04:33:06;20.00;99.90
35206;DHT22;46555;45.620;13.796;2022-08-19T04:35:36;20.00;99.90
35206;DHT22;46555;45.620;13.796;2022-08-19T04:38:03;20.00;99.90
35206;DHT22;46555;45.620;13.796;2022-08-19T04:40:28;20.00;99.90
35206;DHT22;46555;45.620;13.796;2022-08-19T04:43:13;19.90;99.90
35206;DHT22;46555;45.620;13.796;2022-08-19T04:45:40;19.80;99.90
35206;DHT22;46555;45.620;13.796;2022-08-19T04:48:05;19.60;99.90
35206;DHT22;46555;45.620;13.796;2022-08-19T04:50:31;19.60;99.90
35206;DHT22;46555;45.620;13.796;2022-08-19T04:52:57;19.40;99.90
35206;DHT22;46555;45.620;13.796;2022-08-19T04:55:23;19.30;99.90
35206;DHT22;46555;45.620;13.796;2022-08-19T04:57:50;19.20;99.90
35206;DHT22;46555;45.620;13.796;2022-08-19T05:00:16;19.10;99.90
35206;DHT22;46555;45.620;13.796;2022-08-19T05:02:43;19.10;99.90
35206;DHT22;46555;45.620;13.796;2022-08-19T05:05:09;19.00;99.90
35206;DHT22;46555;45.620;13.796;2022-08-19T05:07:35;18.90;99.90
35206;DHT22;46555;45.620;13.796;2022-08-19T05:10:01;18.80;99.90
35206;DHT22;46555;45.620;13.796;2022-08-19T05:12:27;18.80;99.90
35206;DHT22;46555;45.620;13.796;2022-08-19T05:14:54;18.70;99.90
35206;DHT22;46555;45.620;13.796;2022-08-19T05:17:19;18.70;99.90
35206;DHT22;46555;45.620;13.796;2022-08-19T05:19:45;18.80;99.90
35206;DHT22;46555;45.620;13.796;2022-08-19T05:22:29;18.70;99.90
35206;DHT22;46555;45.620;13.796;2022-08-19T05:25:02;18.70;99.90
35206;DHT22;46555;45.620;13.796;2022-08-19T05:27:28;18.80;99.90
35206;DHT22;46555;45.620;13.796;2022-08-19T05:29:54;18.80;99.90
35206;DHT22;46555;45.620;13.796;2022-08-19T05:32:20;18.90;99.90
35206;DHT22;46555;45.620;13.796;2022-08-19T05:34:47;18.80;99.90
35206;DHT22;46555;45.620;13.796;2022-08-19T05:37:12;18.80;99.90
35206;DHT22;46555;45.620;13.796;2022-08-19T05:39:38;18.80;99.90
35206;DHT22;46555;45.620;13.796;2022-08-19T05:42:07;18.90;99.90
35206;DHT22;46555;45.620;13.796;2022-08-19T05:44:36;19.00;99.90
35206;DHT22;46555;45.620;13.796;2022-08-19T05:47:03;19.00;99.90
35206;DHT22;46555;45.620;13.796;2022-08-19T05:49:31;19.20;99.90
35206;DHT22;46555;45.620;13.796;2022-08-19T05:51:57;19.10;99.90
35206;DHT22;46555;45.620;13.796;2022-08-19T05:54:25;19.20;99.90
35206;DHT22;46555;45.620;13.796;2022-08-19T05:56:52;19.30;99.90
35206;DHT22;46555;45.620;13.796;2022-08-19T05:59:19;19.50;99.90
35206;DHT22;46555;45.620;13.796;2022-08-19T06:01:48;19.50;99.90
35206;DHT22;46555;45.620;13.796;2022-08-19T06:04:17;19.40;99.90
35206;DHT22;46555;45.620;13.796;2022-08-19T06:06:45;19.60;99.90
35206;DHT22;46555;45.620;13.796;2022-08-19T06:09:12;19.70;99.90
35206;DHT22;46555;45.620;13.796;2022-08-19T06:11:46;19.70;99.90
35206;DHT22;46555;45.620;13.796;2022-08-19T06:14:15;19.70;99.90
35206;DHT22;46555;45.620;13.796;2022-08-19T06:16:43;19.90;99.90
35206;DHT22;46555;45.620;13.796;2022-08-19T06:19:15;19.90;99.90
35206;DHT22;46555;45.620;13.796;2022-08-19T06:21:45;19.90;99.90
35206;DHT22;46555;45.620;13.796;2022-08-19T06:24:14;19.80;99.90
35206;DHT22;46555;45.620;13.796;2022-08-19T06:26:45;19.80;99.90
35206;DHT22;46555;45.620;13.796;2022-08-19T06:29:13;19.80;99.90
35206;DHT22;46555;45.620;13.796;2022-08-19T06:31:45;19.90;99.90
35206;DHT22;46555;45.620;13.796;2022-08-19T06:34:12;20.00;99.90
35206;DHT22;46555;45.620;13.796;2022-08-19T06:36:41;20.10;99.90
35206;DHT22;46555;45.620;13.796;2022-08-19T06:39:14;20.20;99.90
35206;DHT22;46555;45.620;13.796;2022-08-19T06:41:43;20.40;99.90
35206;DHT22;46555;45.620;13.796;2022-08-19T06:44:11;20.60;99.90
35206;DHT22;46555;45.620;13.796;2022-08-19T06:46:38;20.50;99.90
35206;DHT22;46555;45.620;13.796;2022-08-19T06:49:04;20.40;99.90
35206;DHT22;46555;45.620;13.796;2022-08-19T06:51:30;20.50;99.90
35206;DHT22;46555;45.620;13.796;2022-08-19T06:53:58;20.60;99.90
35206;DHT22;46555;45.620;13.796;2022-08-19T06:56:26;20.70;99.90
35206;DHT22;46555;45.620;13.796;2022-08-19T06:59:07;21.00;99.90
35206;DHT22;46555;45.620;13.796;2022-08-19T07:01:50;21.00;99.90
35206;DHT22;46555;45.620;13.796;2022-08-19T07:04:25;21.00;99.90
35206;DHT22;46555;45.620;13.796;2022-08-19T07:07:00;21.10;99.90
35206;DHT22;46555;45.620;13.796;2022-08-19T07:09:27;20.90;99.90
35206;DHT22;46555;45.620;13.796;2022-08-19T07:11:53;21.20;99.90
35206;DHT22;46555;45.620;13.796;2022-08-19T07:14:22;21.20;99.90
35206;DHT22;46555;45.620;13.796;2022-08-19T07:16:51;21.30;99.90
35206;DHT22;46555;45.620;13.796;2022-08-19T07:19:18;21.20;99.90
35206;DHT22;46555;45.620;13.796;2022-08-19T07:21:46;21.40;99.90
35206;DHT22;46555;45.620;13.796;2022-08-19T07:24:11;21.30;99.90
35206;DHT22;46555;45.620;13.796;2022-08-19T07:26:40;21.50;99.90
35206;DHT22;46555;45.620;13.796;2022-08-19T07:29:06;21.60;99.90
35206;DHT22;46555;45.620;13.796;2022-08-19T07:31:32;21.60;99.90
35206;DHT22;46555;45.620;13.796;2022-08-19T07:34:03;21.60;99.90
35206;DHT22;46555;45.620;13.796;2022-08-19T07:36:34;21.90;99.90
35206;DHT22;46555;45.620;13.796;2022-08-19T07:39:04;22.00;99.90
35206;DHT22;46555;45.620;13.796;2022-08-19T07:41:30;22.20;99.90
35206;DHT22;46555;45.620;13.796;2022-08-19T07:44:00;22.20;99.90
35206;DHT22;46555;45.620;13.796;2022-08-19T07:46:32;22.20;99.90
35206;DHT22;46555;45.620;13.796;2022-08-19T07:48:59;22.30;99.90
35206;DHT22;46555;45.620;13.796;2022-08-19T07:51:26;22.20;99.90
35206;DHT22;46555;45.620;13.796;2022-08-19T07:53:52;22.50;99.90
35206;DHT22;46555;45.620;13.796;2022-08-19T07:56:20;22.90;99.90
35206;DHT22;46555;45.620;13.796;2022-08-19T07:58:48;23.10;99.90
35206;DHT22;46555;45.620;13.796;2022-08-19T08:01:21;23.00;99.90
35206;DHT22;46555;45.620;13.796;2022-08-19T08:03:49;23.00;99.90
35206;DHT22;46555;45.620;13.796;2022-08-19T08:06:33;23.20;99.90
35206;DHT22;46555;45.620;13.796;2022-08-19T08:09:22;23.10;99.90
35206;DHT22;46555;45.620;13.796;2022-08-19T08:11:51;22.90;99.90
35206;DHT22;46555;45.620;13.796;2022-08-19T08:14:48;23.00;99.90
35206;DHT22;46555;45.620;13.796;2022-08-19T08:17:15;23.00;99.90
35206;DHT22;46555;45.620;13.796;2022-08-19T08:19:42;23.00;99.90
35206;DHT22;46555;45.620;13.796;2022-08-19T08:22:09;23.10;99.90
35206;DHT22;46555;45.620;13.796;2022-08-19T08:24:54;23.10;99.90
35206;DHT22;46555;45.620;13.796;2022-08-19T08:27:23;23.30;99.90
35206;DHT22;46555;45.620;13.796;2022-08-19T08:29:49;23.60;99.90
35206;DHT22;46555;45.620;13.796;2022-08-19T08:32:15;23.90;99.90
35206;DHT22;46555;45.620;13.796;2022-08-19T08:34:41;24.30;99.90
35206;DHT22;46555;45.620;13.796;2022-08-19T08:37:08;24.40;99.90
35206;DHT22;46555;45.620;13.796;2022-08-19T08:39:33;24.70;99.90
35206;DHT22;46555;45.620;13.796;2022-08-19T08:45:13;24.90;99.90
35206;DHT22;46555;45.620;13.796;2022-08-19T08:47:43;24.90;99.90
35206;DHT22;46555;45.620;13.796;2022-08-19T08:50:21;25.00;99.90
35206;DHT22;46555;45.620;13.796;2022-08-19T08:52:53;25.30;99.90
35206;DHT22;46555;45.620;13.796;2022-08-19T08:55:23;25.50;99.90
35206;DHT22;46555;45.620;13.796;2022-08-19T09:00:27;26.10;99.90
35206;DHT22;46555;45.620;13.796;2022-08-19T09:02:54;26.20;99.90
35206;DHT22;46555;45.620;13.796;2022-08-19T09:05:21;26.20;99.90
35206;DHT22;46555;45.620;13.796;2022-08-19T09:10:59;26.20;99.90
35206;DHT22;46555;45.620;13.796;2022-08-19T09:14:02;26.30;99.90
35206;DHT22;46555;45.620;13.796;2022-08-19T09:16:30;26.30;99.90
35206;DHT22;46555;45.620;13.796;2022-08-19T09:19:05;26.50;99.90
35206;DHT22;46555;45.620;13.796;2022-08-19T09:21:31;26.70;99.90
35206;DHT22;46555;45.620;13.796;2022-08-19T09:23:57;27.20;99.90
35206;DHT22;46555;45.620;13.796;2022-08-19T09:26:24;27.50;99.90
35206;DHT22;46555;45.620;13.796;2022-08-19T09:28:52;27.60;99.90
35206;DHT22;46555;45.620;13.796;2022-08-19T09:31:23;27.80;99.90
35206;DHT22;46555;45.620;13.796;2022-08-19T09:33:50;27.90;99.90
35206;DHT22;46555;45.620;13.796;2022-08-19T09:36:18;28.00;99.90
35206;DHT22;46555;45.620;13.796;2022-08-19T09:38:44;28.00;99.90
35206;DHT22;46555;45.620;13.796;2022-08-19T09:41:16;28.00;99.90
35206;DHT22;46555;45.620;13.796;2022-08-19T09:43:46;28.00;99.90
35206;DHT22;46555;45.620;13.796;2022-08-19T09:46:12;28.00;99.90
35206;DHT22;46555;45.620;13.796;2022-08-19T09:48:39;28.20;99.90
35206;DHT22;46555;45.620;13.796;2022-08-19T09:51:11;28.40;99.90
35206;DHT22;46555;45.620;13.796;2022-08-19T09:53:40;28.70;99.90
35206;DHT22;46555;45.620;13.796;2022-08-19T09:56:06;28.80;99.90
35206;DHT22;46555;45.620;13.796;2022-08-19T09:58:33;29.00;99.90
35206;DHT22;46555;45.620;13.796;2022-08-19T10:01:00;29.20;99.90
35206;DHT22;46555;45.620;13.796;2022-08-19T10:03:28;29.40;99.90
35206;DHT22;46555;45.620;13.796;2022-08-19T10:05:56;29.50;99.90
35206;DHT22;46555;45.620;13.796;2022-08-19T10:08:27;29.40;99.90
35206;DHT22;46555;45.620;13.796;2022-08-19T10:10:54;29.20;99.90
35206;DHT22;46555;45.620;13.796;2022-08-19T10:13:23;29.00;99.90
35206;DHT22;46555;45.620;13.796;2022-08-19T10:15:54;28.70;99.90
35206;DHT22;46555;45.620;13.796;2022-08-19T10:18:23;28.40;99.90
35206;DHT22;46555;45.620;13.796;2022-08-19T10:20:50;28.20;99.90
35206;DHT22;46555;45.620;13.796;2022-08-19T10:23:19;28.00;99.90
35206;DHT22;46555;45.620;13.796;2022-08-19T10:25:45;27.80;99.90
35206;DHT22;46555;45.620;13.796;2022-08-19T10:28:11;27.70;99.90
35206;DHT22;46555;45.620;13.796;2022-08-19T10:30:39;27.50;99.90
35206;DHT22;46555;45.620;13.796;2022-08-19T10:33:05;27.20;99.90
35206;DHT22;46555;45.620;13.796;2022-08-19T10:35:32;26.40;99.90
35206;DHT22;46555;45.620;13.796;2022-08-19T10:37:58;25.90;99.90
35206;DHT22;46555;45.620;13.796;2022-08-19T10:40:26;25.30;99.90
35206;DHT22;46555;45.620;13.796;2022-08-19T10:42:53;25.00;99.90
35206;DHT22;46555;45.620;13.796;2022-08-19T10:45:19;25.00;99.90
35206;DHT22;46555;45.620;13.796;2022-08-19T10:47:48;24.80;99.90
35206;DHT22;46555;45.620;13.796;2022-08-19T10:50:14;24.20;99.90
35206;DHT22;46555;45.620;13.796;2022-08-19T10:53:04;23.80;99.90
35206;DHT22;46555;45.620;13.796;2022-08-19T10:55:30;23.90;99.90
35206;DHT22;46555;45.620;13.796;2022-08-19T10:58:16;24.10;99.90
35206;DHT22;46555;45.620;13.796;2022-08-19T11:00:43;24.60;99.90
35206;DHT22;46555;45.620;13.796;2022-08-19T11:03:09;25.00;99.90
35206;DHT22;46555;45.620;13.796;2022-08-19T11:05:35;25.40;99.90
35206;DHT22;46555;45.620;13.796;2022-08-19T11:08:03;25.60;99.90
35206;DHT22;46555;45.620;13.796;2022-08-19T11:10:28;25.60;99.90
35206;DHT22;46555;45.620;13.796;2022-08-19T11:12:54;25.50;99.90
35206;DHT22;46555;45.620;13.796;2022-08-19T11:15:20;25.80;99.90
35206;DHT22;46555;45.620;13.796;2022-08-19T11:17:46;26.20;99.90
35206;DHT22;46555;45.620;13.796;2022-08-19T11:20:14;26.70;99.90
35206;DHT22;46555;45.620;13.796;2022-08-19T11:22:41;27.20;99.90
35206;DHT22;46555;45.620;13.796;2022-08-19T11:25:08;27.30;99.90
35206;DHT22;46555;45.620;13.796;2022-08-19T11:27:41;27.40;99.90
35206;DHT22;46555;45.620;13.796;2022-08-19T11:30:09;27.50;99.90
35206;DHT22;46555;45.620;13.796;2022-08-19T11:32:35;27.70;99.90
35206;DHT22;46555;45.620;13.796;2022-08-19T11:35:01;28.10;99.90
35206;DHT22;46555;45.620;13.796;2022-08-19T11:37:26;28.50;99.90
35206;DHT22;46555;45.620;13.796;2022-08-19T11:39:52;29.00;99.90
35206;DHT22;46555;45.620;13.796;2022-08-19T11:42:18;29.40;99.90
35206;DHT22;46555;45.620;13.796;2022-08-19T11:45:03;29.60;99.90
35206;DHT22;46555;45.620;13.796;2022-08-19T11:47:29;29.60;99.90
35206;DHT22;46555;45.620;13.796;2022-08-19T11:49:56;29.60;99.90
35206;DHT22;46555;45.620;13.796;2022-08-19T11:52:22;29.60;99.90
35206;DHT22;46555;45.620;13.796;2022-08-19T11:54:48;29.70;99.90
35206;DHT22;46555;45.620;13.796;2022-08-19T11:57:14;29.90;99.90
35206;DHT22;46555;45.620;13.796;2022-08-19T11:59:47;30.20;99.90
35206;DHT22;46555;45.620;13.796;2022-08-19T12:02:13;30.40;99.90
35206;DHT22;46555;45.620;13.796;2022-08-19T12:04:40;30.60;99.90
35206;DHT22;46555;45.620;13.796;2022-08-19T12:07:06;30.60;99.90
35206;DHT22;46555;45.620;13.796;2022-08-19T12:09:32;30.80;99.90
35206;DHT22;46555;45.620;13.796;2022-08-19T12:12:00;31.30;99.90
35206;DHT22;46555;45.620;13.796;2022-08-19T12:14:27;32.50;99.90
35206;DHT22;46555;45.620;13.796;2022-08-19T12:16:55;34.30;99.90
35206;DHT22;46555;45.620;13.796;2022-08-19T12:19:21;36.30;99.90
35206;DHT22;46555;45.620;13.796;2022-08-19T12:21:47;38.20;99.90
35206;DHT22;46555;45.620;13.796;2022-08-19T12:24:13;39.70;99.90
35206;DHT22;46555;45.620;13.796;2022-08-19T12:26:39;41.00;99.90
35206;DHT22;46555;45.620;13.796;2022-08-19T12:29:05;42.30;97.40
35206;DHT22;46555;45.620;13.796;2022-08-19T12:31:31;43.50;95.80
35206;DHT22;46555;45.620;13.796;2022-08-19T12:33:58;44.40;91.10
35206;DHT22;46555;45.620;13.796;2022-08-19T12:36:24;43.70;91.00
35206;DHT22;46555;45.620;13.796;2022-08-19T12:38:50;43.90;89.90
35206;DHT22;46555;45.620;13.796;2022-08-19T12:41:17;43.70;87.50
35206;DHT22;46555;45.620;13.796;2022-08-19T12:43:44;43.30;90.00
35206;DHT22;46555;45.620;13.796;2022-08-19T12:46:10;43.30;90.10
35206;DHT22;46555;45.620;13.796;2022-08-19T12:48:37;42.90;84.50
35206;DHT22;46555;45.620;13.796;2022-08-19T12:51:12;42.30;83.50
35206;DHT22;46555;45.620;13.796;2022-08-19T12:53:38;42.20;86.90
35206;DHT22;46555;45.620;13.796;2022-08-19T12:56:04;41.60;86.90
35206;DHT22;46555;45.620;13.796;2022-08-19T12:58:30;41.60;85.00
35206;DHT22;46555;45.620;13.796;2022-08-19T13:00:57;41.70;85.20
35206;DHT22;46555;45.620;13.796;2022-08-19T13:03:23;41.60;84.40
35206;DHT22;46555;45.620;13.796;2022-08-19T13:05:54;41.30;84.90
35206;DHT22;46555;45.620;13.796;2022-08-19T13:08:20;41.10;87.10
35206;DHT22;46555;45.620;13.796;2022-08-19T13:10:46;41.30;85.10
35206;DHT22;46555;45.620;13.796;2022-08-19T13:13:12;41.90;84.30
35206;DHT22;46555;45.620;13.796;2022-08-19T13:15:40;42.60;83.10
35206;DHT22;46555;45.620;13.796;2022-08-19T13:18:08;42.90;79.70
35206;DHT22;46555;45.620;13.796;2022-08-19T13:20:36;43.90;77.70
35206;DHT22;46555;45.620;13.796;2022-08-19T13:23:02;44.50;81.10
35206;DHT22;46555;45.620;13.796;2022-08-19T13:25:27;44.90;76.10
35206;DHT22;46555;45.620;13.796;2022-08-19T13:27:53;45.30;77.60
35206;DHT22;46555;45.620;13.796;2022-08-19T13:30:21;44.60;76.00
35206;DHT22;46555;45.620;13.796;2022-08-19T13:33:06;43.80;77.80
35206;DHT22;46555;45.620;13.796;2022-08-19T13:35:50;43.60;77.00
35206;DHT22;46555;45.620;13.796;2022-08-19T13:38:20;43.40;77.90
35206;DHT22;46555;45.620;13.796;2022-08-19T13:40:47;42.80;75.70
35206;DHT22;46555;45.620;13.796;2022-08-19T13:43:15;42.60;80.80
35206;DHT22;46555;45.620;13.796;2022-08-19T13:45:40;42.20;78.30
35206;DHT22;46555;45.620;13.796;2022-08-19T13:48:07;41.40;79.50
35206;DHT22;46555;45.620;13.796;2022-08-19T13:50:38;41.40;79.40
35206;DHT22;46555;45.620;13.796;2022-08-19T13:53:04;40.70;80.70
35206;DHT22;46555;45.620;13.796;2022-08-19T13:55:30;40.20;82.90
35206;DHT22;46555;45.620;13.796;2022-08-19T13:57:58;39.90;85.60
35206;DHT22;46555;45.620;13.796;2022-08-19T14:00:25;39.20;84.00
35206;DHT22;46555;45.620;13.796;2022-08-19T14:02:54;38.40;88.80
35206;DHT22;46555;45.620;13.796;2022-08-19T14:05:20;38.00;88.40
35206;DHT22;46555;45.620;13.796;2022-08-19T14:07:46;37.50;90.80
35206;DHT22;46555;45.620;13.796;2022-08-19T14:10:14;37.30;91.80
35206;DHT22;46555;45.620;13.796;2022-08-19T14:12:41;37.40;91.20
35206;DHT22;46555;45.620;13.796;2022-08-19T14:15:08;37.40;91.60
35206;DHT22;46555;45.620;13.796;2022-08-19T14:17:40;37.30;91.40
35206;DHT22;46555;45.620;13.796;2022-08-19T14:20:08;36.80;91.10
35206;DHT22;46555;45.620;13.796;2022-08-19T14:22:39;36.50;92.40
35206;DHT22;46555;45.620;13.796;2022-08-19T14:25:10;36.70;93.10
35206;DHT22;46555;45.620;13.796;2022-08-19T14:27:38;36.50;92.30
35206;DHT22;46555;45.620;13.796;2022-08-19T14:30:06;36.20;92.80
35206;DHT22;46555;45.620;13.796;2022-08-19T14:32:33;35.70;93.90
35206;DHT22;46555;45.620;13.796;2022-08-19T14:34:59;35.60;94.70
35206;DHT22;46555;45.620;13.796;2022-08-19T14:37:25;35.40;94.20
35206;DHT22;46555;45.620;13.796;2022-08-19T14:39:51;34.70;94.50
35206;DHT22;46555;45.620;13.796;2022-08-19T14:42:17;34.00;95.70
35206;DHT22;46555;45.620;13.796;2022-08-19T14:44:43;33.50;96.20
35206;DHT22;46555;45.620;13.796;2022-08-19T14:47:09;32.80;97.30
35206;DHT22;46555;45.620;13.796;2022-08-19T14:49:35;32.30;97.40
35206;DHT22;46555;45.620;13.796;2022-08-19T14:52:01;31.90;99.80
35206;DHT22;46555;45.620;13.796;2022-08-19T14:54:28;31.90;99.90
35206;DHT22;46555;45.620;13.796;2022-08-19T14:56:53;31.90;99.70
35206;DHT22;46555;45.620;13.796;2022-08-19T14:59:19;31.50;99.90
35206;DHT22;46555;45.620;13.796;2022-08-19T15:01:45;31.10;99.90
35206;DHT22;46555;45.620;13.796;2022-08-19T15:04:11;30.60;99.90
35206;DHT22;46555;45.620;13.796;2022-08-19T15:06:36;30.30;99.90
35206;DHT22;46555;45.620;13.796;2022-08-19T15:09:03;30.20;99.90
35206;DHT22;46555;45.620;13.796;2022-08-19T15:11:30;30.50;99.90
35206;DHT22;46555;45.620;13.796;2022-08-19T15:13:58;30.90;99.90
35206;DHT22;46555;45.620;13.796;2022-08-19T15:16:25;31.20;99.90
35206;DHT22;46555;45.620;13.796;2022-08-19T15:18:55;31.40;99.90
35206;DHT22;46555;45.620;13.796;2022-08-19T15:21:22;31.20;99.90
35206;DHT22;46555;45.620;13.796;2022-08-19T15:23:50;31.00;99.90
35206;DHT22;46555;45.620;13.796;2022-08-19T15:26:17;30.50;99.90
35206;DHT22;46555;45.620;13.796;2022-08-19T15:28:44;30.20;99.90
35206;DHT22;46555;45.620;13.796;2022-08-19T15:31:10;30.00;99.90